UAL128 LGSR-LICA
Flight info
| Callsign | UAL128 |
|---|---|
| Flight time | 1h 22m |
| Altitude | 36000 |
| Route | NETIS M601 CRN |
| Aircraft | B737/M-SDE2E3FGHIRWXY/LB1 |
Departure
| Time | 2026-04-21 23:33 |
|---|---|
| Airport | Santorini International Airport (LGSR) |
Arrival
| Time | 2026-04-22 00:56 |
|---|---|
| Airport | Lamezia Terme Sant'Eufemia International Airport (LICA) |
| Time | Latitude | Longitude | Altitude | Speed | Heading |
|---|---|---|---|---|---|
| 2026-04-21 22:31 | 36.40272 | 25.47427 | 113 ft | 0 kts | 249° |
| 2026-04-21 23:23 | 36.40277 | 25.47405 | 114 ft | 0 kts | 81° |
| 2026-04-21 23:23 | 36.40316 | 25.47398 | 115 ft | 0 kts | 81° |
| 2026-04-21 23:26 | 36.40315 | 25.47416 | 115 ft | 7 kts | 106° |
| 2026-04-21 23:27 | 36.40278 | 25.47468 | 111 ft | 9 kts | 133° |
| 2026-04-21 23:27 | 36.40270 | 25.47499 | 113 ft | 0 kts | 87° |
| 2026-04-21 23:28 | 36.40271 | 25.47514 | 112 ft | 9 kts | 81° |
| 2026-04-21 23:28 | 36.40239 | 25.47594 | 111 ft | 13 kts | 150° |
| 2026-04-21 23:29 | 36.40120 | 25.47654 | 105 ft | 23 kts | 159° |
| 2026-04-21 23:29 | 36.39965 | 25.47728 | 100 ft | 24 kts | 159° |
| 2026-04-21 23:29 | 36.39816 | 25.47796 | 95 ft | 23 kts | 159° |
| 2026-04-21 23:29 | 36.39671 | 25.47864 | 89 ft | 22 kts | 159° |
| 2026-04-21 23:30 | 36.39530 | 25.47931 | 84 ft | 21 kts | 159° |
| 2026-04-21 23:30 | 36.39394 | 25.47995 | 73 ft | 21 kts | 159° |
| 2026-04-21 23:30 | 36.39261 | 25.48057 | 71 ft | 20 kts | 158° |
| 2026-04-21 23:30 | 36.39133 | 25.48120 | 66 ft | 20 kts | 158° |
| 2026-04-21 23:31 | 36.39021 | 25.48180 | 64 ft | 15 kts | 131° |
| 2026-04-21 23:31 | 36.39011 | 25.48224 | 63 ft | 0 kts | 94° |
| 2026-04-21 23:32 | 36.39011 | 25.48225 | 63 ft | 1 kts | 94° |
| 2026-04-21 23:32 | 36.39040 | 25.48302 | 62 ft | 13 kts | 27° |
| 2026-04-21 23:33 | 36.39210 | 25.48246 | 66 ft | 62 kts | 339° |
| 2026-04-21 23:33 | 36.39904 | 25.47916 | 99 ft | 148 kts | 339° |
| 2026-04-21 23:33 | 36.41062 | 25.47420 | 475 ft | 195 kts | 338° |
| 2026-04-21 23:33 | 36.42418 | 25.46882 | 1369 ft | 211 kts | 340° |
| 2026-04-21 23:34 | 36.43811 | 25.46474 | 2519 ft | 207 kts | 343° |
| 2026-04-21 23:34 | 36.45253 | 25.46074 | 3306 ft | 218 kts | 343° |
| 2026-04-21 23:34 | 36.46745 | 25.45649 | 4195 ft | 222 kts | 343° |
| 2026-04-21 23:34 | 36.48265 | 25.45208 | 5147 ft | 226 kts | 343° |
| 2026-04-21 23:35 | 36.49803 | 25.44755 | 6209 ft | 227 kts | 343° |
| 2026-04-21 23:35 | 36.51323 | 25.44231 | 7282 ft | 227 kts | 331° |
| 2026-04-21 23:35 | 36.52500 | 25.42968 | 8254 ft | 226 kts | 301° |
| 2026-04-21 23:35 | 36.53092 | 25.41155 | 9189 ft | 230 kts | 279° |
| 2026-04-21 23:36 | 36.53107 | 25.39158 | 10128 ft | 233 kts | 264° |
| 2026-04-21 23:36 | 36.52909 | 25.37153 | 11113 ft | 234 kts | 263° |
| 2026-04-21 23:36 | 36.52685 | 25.35145 | 12086 ft | 235 kts | 263° |
| 2026-04-21 23:36 | 36.52452 | 25.33129 | 13014 ft | 237 kts | 263° |
| 2026-04-21 23:37 | 36.52216 | 25.31087 | 13906 ft | 240 kts | 263° |
| 2026-04-21 23:37 | 36.51980 | 25.29029 | 14794 ft | 241 kts | 265° |
| 2026-04-21 23:37 | 36.52131 | 25.26950 | 15604 ft | 246 kts | 287° |
| 2026-04-21 23:37 | 36.52943 | 25.24981 | 15959 ft | 272 kts | 303° |
| 2026-04-21 23:38 | 36.54125 | 25.22990 | 16180 ft | 300 kts | 305° |
| 2026-04-21 23:38 | 36.55453 | 25.20846 | 16389 ft | 326 kts | 306° |
| 2026-04-21 23:38 | 36.56875 | 25.18557 | 16899 ft | 340 kts | 306° |
| 2026-04-21 23:38 | 36.58324 | 25.16208 | 17716 ft | 344 kts | 305° |
| 2026-04-21 23:39 | 36.59777 | 25.13833 | 18579 ft | 346 kts | 305° |
| 2026-04-21 23:39 | 36.61237 | 25.11431 | 19407 ft | 349 kts | 305° |
| 2026-04-21 23:39 | 36.62686 | 25.09037 | 20158 ft | 353 kts | 305° |
| 2026-04-21 23:39 | 36.64171 | 25.06579 | 20913 ft | 357 kts | 304° |
| 2026-04-21 23:40 | 36.65669 | 25.04095 | 21660 ft | 361 kts | 304° |
| 2026-04-21 23:40 | 36.67181 | 25.01584 | 22367 ft | 364 kts | 304° |
| 2026-04-21 23:40 | 36.68710 | 24.99044 | 23044 ft | 368 kts | 304° |
| 2026-04-21 23:40 | 36.70044 | 24.96330 | 23671 ft | 369 kts | 292° |
| 2026-04-21 23:41 | 36.70723 | 24.93251 | 24319 ft | 370 kts | 279° |
| 2026-04-21 23:41 | 36.71079 | 24.90061 | 24958 ft | 373 kts | 277° |
| 2026-04-21 23:41 | 36.71377 | 24.86834 | 25545 ft | 376 kts | 276° |
| 2026-04-21 23:41 | 36.71668 | 24.83581 | 26117 ft | 380 kts | 276° |
| 2026-04-21 23:42 | 36.71973 | 24.80296 | 26668 ft | 383 kts | 276° |
| 2026-04-21 23:42 | 36.72291 | 24.76993 | 27228 ft | 385 kts | 277° |
| 2026-04-21 23:42 | 36.72620 | 24.73663 | 27733 ft | 388 kts | 277° |
| 2026-04-21 23:42 | 36.72957 | 24.70310 | 28238 ft | 391 kts | 277° |
| 2026-04-21 23:43 | 36.73297 | 24.66937 | 28740 ft | 394 kts | 277° |
| 2026-04-21 23:43 | 36.73639 | 24.63538 | 29201 ft | 396 kts | 277° |
| 2026-04-21 23:43 | 36.73983 | 24.60112 | 29651 ft | 399 kts | 277° |
| 2026-04-21 23:43 | 36.74326 | 24.56680 | 30210 ft | 398 kts | 277° |
| 2026-04-21 23:44 | 36.74693 | 24.53272 | 30824 ft | 396 kts | 280° |
| 2026-04-21 23:44 | 36.75351 | 24.49954 | 31408 ft | 394 kts | 288° |
| 2026-04-21 23:44 | 36.76321 | 24.46775 | 31977 ft | 392 kts | 290° |
| 2026-04-21 23:44 | 36.77321 | 24.43623 | 32504 ft | 390 kts | 290° |
| 2026-04-21 23:45 | 36.78321 | 24.40487 | 33013 ft | 388 kts | 290° |
| 2026-04-21 23:45 | 36.80288 | 24.34247 | 33981 ft | 385 kts | 290° |
| 2026-04-21 23:45 | 36.81255 | 24.31144 | 34456 ft | 382 kts | 290° |
| 2026-04-21 23:46 | 36.82215 | 24.28051 | 34838 ft | 382 kts | 290° |
| 2026-04-21 23:46 | 36.83173 | 24.24956 | 35190 ft | 382 kts | 290° |
| 2026-04-21 23:46 | 36.84133 | 24.21850 | 35496 ft | 384 kts | 290° |
| 2026-04-21 23:46 | 36.85092 | 24.18743 | 35814 ft | 384 kts | 290° |
| 2026-04-21 23:47 | 36.86054 | 24.15623 | 35963 ft | 387 kts | 290° |
| 2026-04-21 23:47 | 36.88004 | 24.09285 | 35973 ft | 398 kts | 290° |
| 2026-04-21 23:48 | 36.90016 | 24.02739 | 35979 ft | 408 kts | 290° |
| 2026-04-21 23:48 | 36.92033 | 23.96170 | 35968 ft | 407 kts | 290° |
| 2026-04-21 23:49 | 36.94061 | 23.89575 | 35965 ft | 406 kts | 290° |
| 2026-04-21 23:49 | 36.96080 | 23.82994 | 35960 ft | 405 kts | 290° |
| 2026-04-21 23:50 | 36.98092 | 23.76421 | 35964 ft | 404 kts | 289° |
| 2026-04-21 23:50 | 37.00098 | 23.69848 | 35963 ft | 404 kts | 289° |
| 2026-04-21 23:51 | 37.02097 | 23.63284 | 35964 ft | 403 kts | 289° |
| 2026-04-21 23:51 | 37.03767 | 23.57786 | 35953 ft | 403 kts | 289° |
| 2026-04-21 23:52 | 37.05743 | 23.51270 | 35959 ft | 403 kts | 289° |
| 2026-04-21 23:52 | 37.07724 | 23.44721 | 35969 ft | 402 kts | 289° |
| 2026-04-21 23:53 | 37.09703 | 23.38165 | 35967 ft | 402 kts | 289° |
| 2026-04-21 23:53 | 37.11678 | 23.31609 | 35963 ft | 402 kts | 289° |
| 2026-04-21 23:54 | 37.13646 | 23.25046 | 35969 ft | 402 kts | 289° |
| 2026-04-21 23:54 | 37.15605 | 23.18480 | 35973 ft | 402 kts | 289° |
| 2026-04-21 23:55 | 37.17562 | 23.11903 | 35972 ft | 402 kts | 289° |
| 2026-04-21 23:55 | 37.19515 | 23.05326 | 35973 ft | 403 kts | 289° |
| 2026-04-21 23:56 | 37.21466 | 22.98740 | 35972 ft | 403 kts | 289° |
| 2026-04-21 23:56 | 37.23415 | 22.92148 | 35984 ft | 403 kts | 289° |
| 2026-04-21 23:57 | 37.25358 | 22.85559 | 35984 ft | 403 kts | 289° |
| 2026-04-21 23:57 | 37.27300 | 22.78955 | 35978 ft | 403 kts | 289° |
| 2026-04-21 23:58 | 37.29240 | 22.72346 | 35981 ft | 404 kts | 289° |
| 2026-04-21 23:58 | 37.31177 | 22.65729 | 35988 ft | 403 kts | 289° |
| 2026-04-21 23:59 | 37.33108 | 22.59116 | 35980 ft | 403 kts | 289° |
| 2026-04-21 23:59 | 37.35026 | 22.52532 | 35976 ft | 404 kts | 289° |
| 2026-04-22 00:00 | 37.36951 | 22.45910 | 35989 ft | 403 kts | 289° |
| 2026-04-22 00:00 | 37.38873 | 22.39282 | 35985 ft | 404 kts | 289° |
| 2026-04-22 00:01 | 37.40877 | 22.32683 | 35990 ft | 404 kts | 294° |
| 2026-04-22 00:01 | 37.43377 | 22.26344 | 35996 ft | 405 kts | 295° |
| 2026-04-22 00:02 | 37.45923 | 22.20023 | 35992 ft | 405 kts | 295° |
| 2026-04-22 00:02 | 37.48449 | 22.13695 | 35991 ft | 405 kts | 295° |
| 2026-04-22 00:03 | 37.50958 | 22.07359 | 35991 ft | 404 kts | 295° |
| 2026-04-22 00:03 | 37.53462 | 22.01008 | 35986 ft | 404 kts | 295° |
| 2026-04-22 00:04 | 37.55956 | 21.94666 | 35987 ft | 404 kts | 295° |
| 2026-04-22 00:04 | 37.58447 | 21.88320 | 35990 ft | 404 kts | 295° |
| 2026-04-22 00:05 | 37.60916 | 21.82015 | 35987 ft | 403 kts | 295° |
| 2026-04-22 00:05 | 37.63395 | 21.75674 | 35994 ft | 403 kts | 295° |
| 2026-04-22 00:06 | 37.65871 | 21.69327 | 35992 ft | 403 kts | 295° |
| 2026-04-22 00:06 | 37.68343 | 21.62978 | 35997 ft | 403 kts | 295° |
| 2026-04-22 00:07 | 37.70807 | 21.56633 | 36003 ft | 400 kts | 295° |
| 2026-04-22 00:07 | 37.73211 | 21.50435 | 35983 ft | 389 kts | 295° |
| 2026-04-22 00:08 | 37.75593 | 21.44283 | 35994 ft | 391 kts | 295° |
| 2026-04-22 00:08 | 37.77980 | 21.38102 | 36000 ft | 392 kts | 295° |
| 2026-04-22 00:09 | 37.80373 | 21.31892 | 36003 ft | 394 kts | 295° |
| 2026-04-22 00:09 | 37.82772 | 21.25654 | 35999 ft | 394 kts | 295° |
| 2026-04-22 00:10 | 37.85167 | 21.19414 | 35997 ft | 395 kts | 295° |
| 2026-04-22 00:10 | 37.87563 | 21.13164 | 36003 ft | 394 kts | 295° |
| 2026-04-22 00:11 | 37.89951 | 21.06918 | 35999 ft | 394 kts | 295° |
| 2026-04-22 00:11 | 37.92332 | 21.00676 | 35999 ft | 394 kts | 295° |
| 2026-04-22 00:12 | 37.94711 | 20.94427 | 36008 ft | 393 kts | 295° |
| 2026-04-22 00:12 | 37.97083 | 20.88187 | 36009 ft | 393 kts | 295° |
| 2026-04-22 00:13 | 37.99445 | 20.81960 | 36012 ft | 392 kts | 295° |
| 2026-04-22 00:13 | 38.01801 | 20.75734 | 36010 ft | 391 kts | 295° |
| 2026-04-22 00:14 | 38.04151 | 20.69510 | 36000 ft | 391 kts | 295° |
| 2026-04-22 00:14 | 38.06498 | 20.63283 | 35996 ft | 391 kts | 295° |
| 2026-04-22 00:15 | 38.08835 | 20.57071 | 36000 ft | 390 kts | 295° |
| 2026-04-22 00:15 | 38.11164 | 20.50846 | 35999 ft | 390 kts | 293° |
| 2026-04-22 00:16 | 38.13050 | 20.44397 | 35992 ft | 389 kts | 289° |
| 2026-04-22 00:16 | 38.14802 | 20.37944 | 35990 ft | 389 kts | 289° |
| 2026-04-22 00:17 | 38.16584 | 20.31406 | 35990 ft | 389 kts | 289° |
| 2026-04-22 00:17 | 38.18361 | 20.24922 | 35990 ft | 389 kts | 289° |
| 2026-04-22 00:18 | 38.20139 | 20.18438 | 35997 ft | 388 kts | 289° |
| 2026-04-22 00:18 | 38.21903 | 20.11991 | 35992 ft | 389 kts | 289° |
| 2026-04-22 00:19 | 38.23673 | 20.05505 | 35993 ft | 388 kts | 289° |
| 2026-04-22 00:19 | 38.25441 | 19.99012 | 35990 ft | 388 kts | 289° |
| 2026-04-22 00:20 | 38.27204 | 19.92517 | 35992 ft | 388 kts | 289° |
| 2026-04-22 00:20 | 38.28965 | 19.86017 | 35996 ft | 388 kts | 289° |
| 2026-04-22 00:21 | 38.30723 | 19.79515 | 35987 ft | 389 kts | 289° |
| 2026-04-22 00:21 | 38.32476 | 19.73008 | 35988 ft | 388 kts | 289° |
| 2026-04-22 00:22 | 38.34219 | 19.66510 | 35992 ft | 388 kts | 289° |
| 2026-04-22 00:22 | 38.35960 | 19.60000 | 35990 ft | 388 kts | 289° |
| 2026-04-22 00:23 | 38.37696 | 19.53491 | 35991 ft | 388 kts | 289° |
| 2026-04-22 00:23 | 38.39433 | 19.46966 | 35990 ft | 389 kts | 289° |
| 2026-04-22 00:24 | 38.41170 | 19.40423 | 35987 ft | 393 kts | 289° |
| 2026-04-22 00:24 | 38.42934 | 19.33759 | 35972 ft | 398 kts | 289° |
| 2026-04-22 00:25 | 38.44698 | 19.27078 | 35967 ft | 397 kts | 289° |
| 2026-04-22 00:25 | 38.46456 | 19.20404 | 35961 ft | 397 kts | 288° |
| 2026-04-22 00:26 | 38.48206 | 19.13741 | 35964 ft | 396 kts | 288° |
| 2026-04-22 00:26 | 38.49937 | 19.07134 | 35961 ft | 395 kts | 288° |
| 2026-04-22 00:27 | 38.51687 | 19.00441 | 35962 ft | 394 kts | 288° |
| 2026-04-22 00:27 | 38.53402 | 18.93852 | 35961 ft | 394 kts | 288° |
| 2026-04-22 00:28 | 38.55136 | 18.87180 | 35963 ft | 393 kts | 288° |
| 2026-04-22 00:28 | 38.56841 | 18.80601 | 35959 ft | 393 kts | 288° |
| 2026-04-22 00:29 | 38.58556 | 18.73962 | 35950 ft | 393 kts | 288° |
| 2026-04-22 00:29 | 38.60270 | 18.67314 | 35939 ft | 394 kts | 288° |
| 2026-04-22 00:30 | 38.61979 | 18.60665 | 35935 ft | 394 kts | 288° |
| 2026-04-22 00:30 | 38.63685 | 18.54008 | 35935 ft | 394 kts | 288° |
| 2026-04-22 00:31 | 38.65386 | 18.47355 | 35929 ft | 394 kts | 288° |
| 2026-04-22 00:31 | 38.67090 | 18.40672 | 35925 ft | 395 kts | 288° |
| 2026-04-22 00:32 | 38.68788 | 18.33992 | 35925 ft | 395 kts | 288° |
| 2026-04-22 00:32 | 38.70483 | 18.27310 | 35920 ft | 395 kts | 288° |
| 2026-04-22 00:33 | 38.72175 | 18.20618 | 35726 ft | 396 kts | 288° |
| 2026-04-22 00:33 | 38.73028 | 18.17213 | 34741 ft | 402 kts | 288° |
| 2026-04-22 00:33 | 38.73879 | 18.13790 | 33791 ft | 405 kts | 288° |
| 2026-04-22 00:33 | 38.74731 | 18.10361 | 32929 ft | 405 kts | 288° |
| 2026-04-22 00:34 | 38.75577 | 18.06949 | 32112 ft | 398 kts | 288° |
| 2026-04-22 00:34 | 38.76405 | 18.03610 | 31403 ft | 386 kts | 288° |
| 2026-04-22 00:34 | 38.77204 | 18.00381 | 30760 ft | 374 kts | 288° |
| 2026-04-22 00:34 | 38.77972 | 17.97277 | 30195 ft | 368 kts | 288° |
| 2026-04-22 00:35 | 38.78753 | 17.94117 | 29612 ft | 365 kts | 288° |
| 2026-04-22 00:35 | 38.79517 | 17.91025 | 29024 ft | 363 kts | 288° |
| 2026-04-22 00:35 | 38.80264 | 17.87997 | 28440 ft | 360 kts | 288° |
| 2026-04-22 00:35 | 38.81014 | 17.84951 | 27851 ft | 357 kts | 287° |
| 2026-04-22 00:36 | 38.81759 | 17.81922 | 27264 ft | 355 kts | 287° |
| 2026-04-22 00:36 | 38.82497 | 17.78918 | 26678 ft | 353 kts | 287° |
| 2026-04-22 00:36 | 38.83241 | 17.75885 | 26083 ft | 351 kts | 287° |
| 2026-04-22 00:36 | 38.83970 | 17.72911 | 25441 ft | 349 kts | 287° |
| 2026-04-22 00:37 | 38.84697 | 17.69943 | 24587 ft | 355 kts | 287° |
| 2026-04-22 00:37 | 38.85436 | 17.66922 | 23922 ft | 354 kts | 287° |
| 2026-04-22 00:37 | 38.86170 | 17.63918 | 23331 ft | 351 kts | 287° |
| 2026-04-22 00:37 | 38.86898 | 17.60941 | 22747 ft | 348 kts | 287° |
| 2026-04-22 00:38 | 38.87618 | 17.57984 | 22169 ft | 345 kts | 287° |
| 2026-04-22 00:38 | 38.88331 | 17.55057 | 21600 ft | 343 kts | 287° |
| 2026-04-22 00:38 | 38.89038 | 17.52152 | 21035 ft | 340 kts | 287° |
| 2026-04-22 00:38 | 38.89739 | 17.49268 | 20470 ft | 337 kts | 287° |
| 2026-04-22 00:39 | 38.90432 | 17.46412 | 19914 ft | 334 kts | 287° |
| 2026-04-22 00:39 | 38.91117 | 17.43585 | 19360 ft | 330 kts | 287° |
| 2026-04-22 00:39 | 38.91798 | 17.40775 | 18816 ft | 327 kts | 287° |
| 2026-04-22 00:39 | 38.92469 | 17.37999 | 18266 ft | 324 kts | 287° |
| 2026-04-22 00:40 | 38.92918 | 17.36140 | 17901 ft | 322 kts | 287° |
| 2026-04-22 00:40 | 38.93578 | 17.33408 | 17364 ft | 319 kts | 287° |
| 2026-04-22 00:40 | 38.94231 | 17.30695 | 16826 ft | 316 kts | 287° |
| 2026-04-22 00:40 | 38.94879 | 17.28004 | 16281 ft | 314 kts | 287° |
| 2026-04-22 00:41 | 38.95512 | 17.25370 | 15752 ft | 312 kts | 287° |
| 2026-04-22 00:41 | 38.96149 | 17.22717 | 15218 ft | 310 kts | 287° |
| 2026-04-22 00:41 | 38.96782 | 17.20083 | 14686 ft | 308 kts | 287° |
| 2026-04-22 00:41 | 38.97410 | 17.17466 | 14154 ft | 305 kts | 287° |
| 2026-04-22 00:42 | 38.98039 | 17.14836 | 13618 ft | 304 kts | 287° |
| 2026-04-22 00:42 | 38.98454 | 17.13101 | 13260 ft | 302 kts | 287° |
| 2026-04-22 00:42 | 38.98507 | 17.12880 | 13222 ft | 302 kts | 287° |
| 2026-04-22 00:42 | 38.99055 | 17.10282 | 12672 ft | 301 kts | 278° |
| 2026-04-22 00:43 | 38.99069 | 17.07602 | 12131 ft | 301 kts | 265° |
| 2026-04-22 00:43 | 38.98550 | 17.04971 | 11484 ft | 306 kts | 251° |
| 2026-04-22 00:43 | 38.97749 | 17.02446 | 10953 ft | 304 kts | 249° |
| 2026-04-22 00:43 | 38.96900 | 16.99961 | 10430 ft | 304 kts | 248° |
| 2026-04-22 00:44 | 38.96060 | 16.97525 | 10234 ft | 289 kts | 248° |
| 2026-04-22 00:44 | 38.95278 | 16.95246 | 10074 ft | 269 kts | 248° |
| 2026-04-22 00:44 | 38.94613 | 16.93292 | 9974 ft | 260 kts | 248° |
| 2026-04-22 00:45 | 38.94282 | 16.92314 | 9929 ft | 259 kts | 249° |
| 2026-04-22 00:46 | 38.93560 | 16.90170 | 9647 ft | 266 kts | 249° |
| 2026-04-22 00:46 | 38.92826 | 16.87983 | 9277 ft | 266 kts | 248° |
| 2026-04-22 00:46 | 38.92104 | 16.85829 | 8907 ft | 258 kts | 248° |
| 2026-04-22 00:46 | 38.91404 | 16.83746 | 8556 ft | 251 kts | 248° |
| 2026-04-22 00:47 | 38.90716 | 16.81695 | 8240 ft | 248 kts | 248° |
| 2026-04-22 00:47 | 38.90047 | 16.79701 | 7904 ft | 237 kts | 248° |
| 2026-04-22 00:47 | 38.89412 | 16.77811 | 7552 ft | 225 kts | 248° |
| 2026-04-22 00:47 | 38.88810 | 16.76018 | 7240 ft | 213 kts | 248° |
| 2026-04-22 00:48 | 38.88240 | 16.74322 | 6969 ft | 208 kts | 248° |
| 2026-04-22 00:48 | 38.87672 | 16.72630 | 6683 ft | 205 kts | 248° |
| 2026-04-22 00:48 | 38.87110 | 16.70958 | 6389 ft | 203 kts | 248° |
| 2026-04-22 00:48 | 38.86556 | 16.69312 | 6156 ft | 199 kts | 248° |
| 2026-04-22 00:49 | 38.86014 | 16.67702 | 6063 ft | 195 kts | 248° |
| 2026-04-22 00:49 | 38.85598 | 16.66043 | 5876 ft | 199 kts | 269° |
| 2026-04-22 00:49 | 38.85771 | 16.64284 | 5679 ft | 200 kts | 279° |
| 2026-04-22 00:49 | 38.86029 | 16.62514 | 5420 ft | 201 kts | 281° |
| 2026-04-22 00:50 | 38.86284 | 16.60760 | 5172 ft | 200 kts | 279° |
| 2026-04-22 00:50 | 38.86513 | 16.58999 | 4919 ft | 198 kts | 279° |
| 2026-04-22 00:50 | 38.86718 | 16.57304 | 4653 ft | 186 kts | 278° |
| 2026-04-22 00:50 | 38.86903 | 16.55719 | 4426 ft | 175 kts | 278° |
| 2026-04-22 00:51 | 38.87077 | 16.54203 | 4220 ft | 170 kts | 278° |
| 2026-04-22 00:51 | 38.87250 | 16.52696 | 4035 ft | 172 kts | 279° |
| 2026-04-22 00:51 | 38.87425 | 16.51164 | 3825 ft | 175 kts | 279° |
| 2026-04-22 00:51 | 38.87601 | 16.49625 | 3679 ft | 175 kts | 279° |
| 2026-04-22 00:52 | 38.87778 | 16.48071 | 3449 ft | 176 kts | 279° |
| 2026-04-22 00:52 | 38.87956 | 16.46528 | 3213 ft | 174 kts | 279° |
| 2026-04-22 00:52 | 38.88133 | 16.44995 | 2995 ft | 174 kts | 280° |
| 2026-04-22 00:52 | 38.88310 | 16.43470 | 2767 ft | 171 kts | 279° |
| 2026-04-22 00:53 | 38.88486 | 16.41963 | 2546 ft | 172 kts | 278° |
| 2026-04-22 00:53 | 38.88663 | 16.40447 | 2329 ft | 173 kts | 277° |
| 2026-04-22 00:53 | 38.88833 | 16.38915 | 2103 ft | 174 kts | 276° |
| 2026-04-22 00:53 | 38.89010 | 16.37383 | 1857 ft | 171 kts | 277° |
| 2026-04-22 00:54 | 38.89180 | 16.35901 | 1631 ft | 165 kts | 279° |
| 2026-04-22 00:54 | 38.89349 | 16.34462 | 1423 ft | 163 kts | 279° |
| 2026-04-22 00:54 | 38.89515 | 16.33027 | 1210 ft | 162 kts | 279° |
| 2026-04-22 00:54 | 38.89681 | 16.31590 | 997 ft | 163 kts | 278° |
| 2026-04-22 00:55 | 38.89844 | 16.30205 | 807 ft | 150 kts | 279° |
| 2026-04-22 00:55 | 38.89994 | 16.28920 | 605 ft | 139 kts | 279° |
| 2026-04-22 00:55 | 38.90257 | 16.26661 | 181 ft | 122 kts | 279° |
| 2026-04-22 00:56 | 38.90376 | 16.25626 | 33 ft | 108 kts | 279° |
| 2026-04-22 00:56 | 38.90454 | 16.24999 | 35 ft | 29 kts | 281° |
| 2026-04-22 00:56 | 38.90539 | 16.24953 | 35 ft | 15 kts | 59° |
| 2026-04-22 00:56 | 38.90618 | 16.25022 | 35 ft | 14 kts | 356° |
| 2026-04-22 00:57 | 38.90701 | 16.24945 | 30 ft | 15 kts | 323° |
| 2026-04-22 00:57 | 38.90763 | 16.24844 | 30 ft | 15 kts | 283° |
| 2026-04-22 00:57 | 38.90779 | 16.24719 | 31 ft | 14 kts | 278° |
| 2026-04-22 00:57 | 38.90793 | 16.24598 | 31 ft | 13 kts | 278° |
| 2026-04-22 00:58 | 38.90807 | 16.24481 | 31 ft | 13 kts | 278° |
| 2026-04-22 00:58 | 38.90841 | 16.24771 | 31 ft | 0 kts | 54° |